Terminal Aerodrome Forecast
Issued by NWS

Home | Current Version | Previous Version | Graphics & Text | Print | Product List | Glossary On
Versions: 1 2 3 4 5 6 7 8 9 10 11 12 13 14 15 16 17 18 19 20 21 22 23 24 25 26 27 28 29 30 31 32 33 34 35 36 37
000
FTUS43 KABR 181600 AAB
TAFATY
TAF AMD
KATY 181653Z 1817/1912 13015KT P6SM OVC150
     FM182300 11011KT P6SM -SHRA OVC025
     FM190300 09011KT 4SM SHRA BR OVC015
     FM191000 33022G32KT 6SM -SHRA OVC015=

USA.gov is the U.S. government's official web portal to all federal, state and local government web resources and services.